createdAt,value
2022-12-13T00:01:53.916Z,28.13
2022-12-13T00:04:23.738Z,37.97
2022-12-13T00:06:53.846Z,30.27
2022-12-13T00:09:22.148Z,31.80
2022-12-13T00:11:50.303Z,33.83
2022-12-13T00:14:18.174Z,33.50
2022-12-13T00:16:48.157Z,33.67
2022-12-13T00:19:16.357Z,29.80
2022-12-13T00:21:43.935Z,28.27
2022-12-13T00:24:11.280Z,30.00
2022-12-13T00:26:38.697Z,38.93
2022-12-13T00:29:07.450Z,35.53
2022-12-13T00:34:23.263Z,35.37
2022-12-13T00:36:50.892Z,32.83
2022-12-13T00:39:19.184Z,35.77
2022-12-13T00:41:47.306Z,33.63
2022-12-13T00:44:15.190Z,32.87
2022-12-13T00:46:42.844Z,33.70
2022-12-13T00:49:11.470Z,35.23
2022-12-13T00:51:39.386Z,29.63
2022-12-13T00:54:08.064Z,38.43
2022-12-13T00:56:37.605Z,36.83
2022-12-13T00:59:05.280Z,32.50
2022-12-13T01:01:35.973Z,29.07
2022-12-13T01:04:04.729Z,37.30
2022-12-13T01:06:42.310Z,35.37
2022-12-13T01:09:19.206Z,32.57
2022-12-13T01:11:47.040Z,31.33
2022-12-13T01:14:15.224Z,34.70
2022-12-13T01:16:42.566Z,34.23
2022-12-13T01:19:09.826Z,32.70
2022-12-13T01:21:37.138Z,31.40
2022-12-13T01:24:05.782Z,38.87
2022-12-13T01:26:33.813Z,37.33
2022-12-13T01:29:01.924Z,32.23
2022-12-13T01:31:29.209Z,35.13
2022-12-13T01:33:56.888Z,37.80
2022-12-13T01:36:27.781Z,35.13
2022-12-13T01:38:59.419Z,31.00
2022-12-13T01:41:28.518Z,33.13
2022-12-13T01:44:03.591Z,28.70
2022-12-13T01:46:36.025Z,30.27
2022-12-13T01:49:20.392Z,30.83
2022-12-13T01:51:48.242Z,30.60
2022-12-13T01:54:21.474Z,35.77
2022-12-13T01:56:53.512Z,37.80
2022-12-13T01:59:28.649Z,29.43
2022-12-13T02:02:00.639Z,32.90
2022-12-13T02:05:00.421Z,34.13
2022-12-13T02:07:31.145Z,27.90
2022-12-13T02:10:00.684Z,33.43
2022-12-13T02:12:31.152Z,37.07
2022-12-13T02:15:01.292Z,31.57
2022-12-13T02:17:34.898Z,27.07
2022-12-13T02:20:37.111Z,38.40
2022-12-13T02:23:41.974Z,36.73
2022-12-13T02:26:28.079Z,30.00
2022-12-13T02:29:14.010Z,28.73
2022-12-13T02:32:30.614Z,32.03
2022-12-13T02:35:17.115Z,32.67
2022-12-13T02:37:54.217Z,34.20
2022-12-13T02:40:32.627Z,31.77
2022-12-13T02:43:05.444Z,35.43
2022-12-13T02:45:47.908Z,33.50
2022-12-13T02:48:26.192Z,30.23
2022-12-13T02:50:54.409Z,28.53
2022-12-13T02:53:24.437Z,30.27
2022-12-13T02:55:51.704Z,34.30
2022-12-13T02:58:25.161Z,34.13
2022-12-13T03:01:27.881Z,30.33
2022-12-13T03:04:26.428Z,28.67
2022-12-13T03:07:23.825Z,33.63
2022-12-13T03:10:05.621Z,31.63
2022-12-13T03:13:10.730Z,33.57
2022-12-13T03:15:56.424Z,28.53
2022-12-13T03:18:27.100Z,31.43
2022-12-13T03:20:59.006Z,32.63
2022-12-13T03:23:27.166Z,34.07
2022-12-13T03:26:13.705Z,39.03
2022-12-13T03:28:41.517Z,34.07
2022-12-13T03:31:09.300Z,32.70
2022-12-13T03:33:38.657Z,35.93
2022-12-13T03:36:07.006Z,29.27
2022-12-13T03:38:35.106Z,29.50
2022-12-13T03:41:09.188Z,34.20
2022-12-13T03:43:40.458Z,31.37
2022-12-13T03:46:08.309Z,29.97
2022-12-13T03:48:35.752Z,32.10
2022-12-13T03:51:03.598Z,28.70
2022-12-13T03:53:33.066Z,34.10
2022-12-13T03:56:05.875Z,34.53
2022-12-13T03:58:37.321Z,33.10
2022-12-13T04:01:11.234Z,32.37
2022-12-13T04:03:40.194Z,30.40
2022-12-13T04:06:07.981Z,37.47
2022-12-13T04:08:36.683Z,28.77
2022-12-13T04:11:24.714Z,31.10
2022-12-13T04:13:53.826Z,33.50
2022-12-13T04:16:22.280Z,46.97
2022-12-13T04:18:49.975Z,36.37
2022-12-13T04:21:17.404Z,39.60
2022-12-13T04:23:44.787Z,33.97
2022-12-13T04:26:12.077Z,32.13
2022-12-13T04:28:39.323Z,31.90
2022-12-13T04:31:06.586Z,32.77
2022-12-13T04:33:35.076Z,38.63
2022-12-13T04:36:02.575Z,36.97
2022-12-13T04:38:29.842Z,33.97
2022-12-13T04:41:15.893Z,33.80
2022-12-13T04:43:43.809Z,33.07
2022-12-13T04:46:12.082Z,29.37
2022-12-13T04:48:39.372Z,30.17
2022-12-13T04:51:06.786Z,34.67
2022-12-13T04:53:34.081Z,29.63
2022-12-13T04:56:04.653Z,32.67
2022-12-13T04:58:32.231Z,30.40
2022-12-13T05:00:59.503Z,35.40
2022-12-13T05:03:28.690Z,32.57
2022-12-13T05:05:56.891Z,34.57
2022-12-13T05:08:24.274Z,31.57
2022-12-13T05:10:51.581Z,29.07
2022-12-13T05:13:18.835Z,28.33
2022-12-13T05:15:49.441Z,33.27
2022-12-13T05:18:19.413Z,33.50
2022-12-13T05:20:46.641Z,32.90
2022-12-13T05:23:13.826Z,38.13
2022-12-13T05:25:51.395Z,33.47
2022-12-13T05:28:27.864Z,30.53
2022-12-13T05:31:06.491Z,32.60
2022-12-13T05:33:52.140Z,35.10
2022-12-13T05:36:19.843Z,33.23
2022-12-13T05:38:47.061Z,27.07
2022-12-13T05:41:17.327Z,25.83
2022-12-13T05:43:44.543Z,36.40
2022-12-13T05:46:13.160Z,33.03
2022-12-13T05:48:41.181Z,33.20
2022-12-13T05:51:11.893Z,35.90
2022-12-13T05:53:41.402Z,31.33
2022-12-13T05:56:11.139Z,32.87
2022-12-13T05:58:40.066Z,39.00
2022-12-13T06:01:09.570Z,34.07
2022-12-13T06:03:37.503Z,35.23
2022-12-13T06:06:06.696Z,31.93
2022-12-13T06:08:34.103Z,31.83
2022-12-13T06:11:10.032Z,29.80
2022-12-13T06:13:44.260Z,33.00
2022-12-13T06:16:23.894Z,37.40
2022-12-13T06:19:03.647Z,31.73
2022-12-13T06:21:45.559Z,37.30
2022-12-13T06:24:18.179Z,33.90
2022-12-13T06:26:46.189Z,29.77
2022-12-13T06:29:23.496Z,27.73
2022-12-13T06:31:55.011Z,34.47
2022-12-13T06:34:32.261Z,32.60
2022-12-13T06:37:01.037Z,26.13
2022-12-13T06:39:32.701Z,36.07
2022-12-13T06:42:02.356Z,31.03
2022-12-13T06:44:29.637Z,33.00
2022-12-13T06:47:10.767Z,33.93
2022-12-13T06:49:42.826Z,30.10
2022-12-13T06:52:12.738Z,27.80
2022-12-13T06:54:41.392Z,30.40
2022-12-13T06:57:09.386Z,24.23
2022-12-13T06:59:36.625Z,27.60
2022-12-13T07:02:04.398Z,26.27
2022-12-13T07:04:32.798Z,29.37
2022-12-13T07:07:01.614Z,25.60
2022-12-13T07:09:32.988Z,23.30
2022-12-13T07:12:00.518Z,28.50
2022-12-13T07:14:27.741Z,30.97
2022-12-13T07:17:02.833Z,31.17
2022-12-13T07:19:35.372Z,29.00
2022-12-13T07:22:09.651Z,27.27
2022-12-13T07:24:37.117Z,30.20
2022-12-13T07:27:04.884Z,26.87
2022-12-13T07:29:32.162Z,25.30
2022-12-13T07:32:01.105Z,28.90
2022-12-13T07:34:30.593Z,27.13
2022-12-13T07:36:58.286Z,32.77
2022-12-13T07:39:26.244Z,28.67
2022-12-13T07:41:55.735Z,30.20
2022-12-13T07:44:24.448Z,30.63
2022-12-13T07:46:51.924Z,31.40
2022-12-13T07:49:19.496Z,32.83
2022-12-13T07:51:48.047Z,28.80
2022-12-13T07:54:15.490Z,26.47
2022-12-13T07:56:42.747Z,29.27
2022-12-13T07:59:10.942Z,30.27
2022-12-13T08:01:38.292Z,34.87
2022-12-13T08:04:05.764Z,30.43
2022-12-13T08:06:37.772Z,29.13
2022-12-13T08:09:05.972Z,30.47
2022-12-13T08:11:33.441Z,27.07
2022-12-13T08:14:00.720Z,30.53
2022-12-13T08:16:30.350Z,29.03
2022-12-13T08:19:02.594Z,31.40
2022-12-13T08:21:58.261Z,26.90
2022-12-13T08:24:29.966Z,23.23
2022-12-13T08:27:02.096Z,28.17
2022-12-13T08:29:34.288Z,26.57
2022-12-13T08:32:05.094Z,27.33
2022-12-13T08:34:32.381Z,24.00
2022-12-13T08:37:01.768Z,27.37
2022-12-13T08:39:35.334Z,34.20
2022-12-13T08:42:14.944Z,28.60
2022-12-13T08:44:49.996Z,33.23
2022-12-13T08:47:24.634Z,25.00
2022-12-13T08:50:01.391Z,27.47
2022-12-13T08:52:39.626Z,36.67
2022-12-13T08:55:10.113Z,26.53
2022-12-13T08:57:38.166Z,30.20
2022-12-13T09:00:06.884Z,26.40
2022-12-13T09:02:38.277Z,29.53
2022-12-13T09:05:12.717Z,28.73
2022-12-13T09:07:41.255Z,33.97
2022-12-13T09:10:27.052Z,30.87
2022-12-13T09:13:01.599Z,30.00
2022-12-13T09:15:34.445Z,29.00
2022-12-13T09:18:04.364Z,24.27
2022-12-13T09:20:41.657Z,28.20
2022-12-13T09:23:13.438Z,28.93
2022-12-13T09:25:55.345Z,25.20
2022-12-13T09:28:23.079Z,22.67
2022-12-13T09:30:50.718Z,29.80
2022-12-13T09:33:30.496Z,26.17
2022-12-13T09:36:01.098Z,23.87
2022-12-13T09:38:29.497Z,25.07
2022-12-13T09:41:00.292Z,26.27
2022-12-13T09:43:42.876Z,24.63
2022-12-13T09:46:34.872Z,25.60
2022-12-13T09:49:39.246Z,27.80
2022-12-13T09:52:21.865Z,26.60
2022-12-13T09:54:56.929Z,24.40
2022-12-13T09:57:30.823Z,25.67
2022-12-13T10:00:07.594Z,30.80
2022-12-13T10:02:44.413Z,21.07
2022-12-13T10:05:21.434Z,25.63
2022-12-13T10:07:50.189Z,21.80
2022-12-13T10:10:18.377Z,23.33
2022-12-13T10:12:51.635Z,23.07
2022-12-13T10:15:21.995Z,25.50
2022-12-13T10:17:55.634Z,23.87
2022-12-13T10:20:28.870Z,21.57
2022-12-13T10:23:31.382Z,23.80
2022-12-13T10:26:03.433Z,25.40
2022-12-13T10:28:34.711Z,22.60
2022-12-13T10:31:02.542Z,23.67
2022-12-13T10:33:36.431Z,24.60
2022-12-13T10:36:29.718Z,27.90
2022-12-13T10:38:57.405Z,24.30
2022-12-13T10:41:37.044Z,27.03
2022-12-13T10:44:20.996Z,22.90
2022-12-13T10:46:53.226Z,26.87
2022-12-13T10:49:23.860Z,24.03
2022-12-13T10:51:53.708Z,23.40
2022-12-13T10:54:29.439Z,23.27
2022-12-13T10:57:11.630Z,27.63
2022-12-13T10:59:39.806Z,20.97
2022-12-13T11:02:29.301Z,20.80
2022-12-13T11:04:58.247Z,24.87
2022-12-13T11:07:31.645Z,25.60
2022-12-13T11:10:16.487Z,24.57
2022-12-13T11:12:44.842Z,19.63
2022-12-13T11:15:23.115Z,18.83
2022-12-13T11:17:54.532Z,20.73
2022-12-13T11:20:27.104Z,19.87
2022-12-13T11:23:38.241Z,25.40
2022-12-13T11:26:10.468Z,25.73
2022-12-13T11:28:44.161Z,22.87
2022-12-13T11:31:33.582Z,17.67
2022-12-13T11:34:09.536Z,21.60
2022-12-13T11:36:48.531Z,17.33
2022-12-13T11:39:36.865Z,19.37
2022-12-13T11:42:28.385Z,17.43
2022-12-13T11:45:22.644Z,19.90
2022-12-13T11:47:58.356Z,18.27
2022-12-13T11:50:33.519Z,20.40
2022-12-13T11:53:19.162Z,17.27
2022-12-13T11:55:54.337Z,19.83
2022-12-13T11:59:01.023Z,22.70
2022-12-13T12:01:47.336Z,20.57
2022-12-13T12:04:27.262Z,19.00
2022-12-13T12:07:32.209Z,21.43
2022-12-13T12:10:30.731Z,19.83
2022-12-13T12:13:17.243Z,18.63
2022-12-13T12:15:56.938Z,17.50
2022-12-13T12:18:24.704Z,17.20
2022-12-13T12:21:56.470Z,18.60
2022-12-13T12:24:23.026Z,19.50
2022-12-13T12:27:07.316Z,22.10
2022-12-13T12:30:09.735Z,19.60
2022-12-13T12:32:46.995Z,19.90
2022-12-13T12:35:46.181Z,19.10
2022-12-13T12:38:23.174Z,18.87
2022-12-13T12:41:28.024Z,16.50
2022-12-13T12:44:20.439Z,18.80
2022-12-13T12:47:38.141Z,18.33
2022-12-13T12:50:03.206Z,17.70
2022-12-13T12:52:39.043Z,20.90
2022-12-13T12:55:25.097Z,19.20
2022-12-13T12:58:07.554Z,16.33
2022-12-13T13:00:54.325Z,18.10
2022-12-13T13:03:24.462Z,14.57
2022-12-13T13:06:01.935Z,16.60
2022-12-13T13:08:35.926Z,16.07
2022-12-13T13:11:06.123Z,15.97
2022-12-13T13:14:01.844Z,13.37
2022-12-13T13:16:40.281Z,17.87
2022-12-13T13:19:13.701Z,15.90
2022-12-13T13:21:52.785Z,17.33
2022-12-13T13:24:21.844Z,15.10
2022-12-13T13:26:50.414Z,17.93
2022-12-13T13:29:27.324Z,17.07
2022-12-13T13:32:02.567Z,16.43
2022-12-13T13:34:45.647Z,15.80
2022-12-13T13:37:23.284Z,16.90
2022-12-13T13:40:30.783Z,17.20
2022-12-13T13:43:19.451Z,15.33
2022-12-13T13:45:49.972Z,17.70
2022-12-13T13:48:54.734Z,15.50
2022-12-13T13:51:54.927Z,15.57
2022-12-13T13:54:43.151Z,16.37
2022-12-13T13:58:07.120Z,16.90
2022-12-13T14:00:21.704Z,16.57
2022-12-13T14:03:22.600Z,17.03
2022-12-13T14:06:18.590Z,13.77
2022-12-13T14:09:12.781Z,17.17
2022-12-13T14:12:20.455Z,16.20
2022-12-13T14:15:19.966Z,16.23
2022-12-13T14:18:13.166Z,16.03
2022-12-13T14:21:10.138Z,19.00
2022-12-13T14:23:55.607Z,17.07
2022-12-13T14:26:40.930Z,19.20
2022-12-13T14:29:18.617Z,16.93
2022-12-13T14:31:47.865Z,16.70
2022-12-13T14:34:44.599Z,16.77
2022-12-13T14:37:37.699Z,18.27
2022-12-13T14:40:29.307Z,17.83
2022-12-13T14:42:57.144Z,18.03
2022-12-13T14:45:31.241Z,17.60
2022-12-13T14:48:01.545Z,18.63
2022-12-13T14:50:32.969Z,17.93
2022-12-13T14:53:04.017Z,19.93
2022-12-13T14:55:36.076Z,18.37
2022-12-13T14:58:15.874Z,17.70
2022-12-13T15:00:46.451Z,18.70
2022-12-13T15:03:27.028Z,22.13
2022-12-13T15:06:00.232Z,16.37
2022-12-13T15:08:28.121Z,18.33
2022-12-13T15:10:58.466Z,20.47
2022-12-13T15:13:32.798Z,16.87
2022-12-13T15:16:10.075Z,19.13
2022-12-13T15:18:50.431Z,22.63
2022-12-13T15:21:24.480Z,18.73
2022-12-13T15:23:59.973Z,21.40
2022-12-13T15:26:32.704Z,19.90
2022-12-13T15:29:10.411Z,17.77
2022-12-13T15:31:40.707Z,14.87
2022-12-13T15:34:29.004Z,19.83
2022-12-13T15:37:29.333Z,16.67
2022-12-13T15:40:08.510Z,27.43
2022-12-13T15:42:38.562Z,23.47
2022-12-13T15:45:23.121Z,19.90
2022-12-13T15:47:51.691Z,18.77
2022-12-13T15:50:31.985Z,16.40
2022-12-13T15:53:26.020Z,18.07
2022-12-13T15:55:53.602Z,23.80
2022-12-13T15:58:34.390Z,14.03
2022-12-13T16:01:06.399Z,18.33
2022-12-13T16:03:45.316Z,14.17
2022-12-13T16:06:23.715Z,16.17
2022-12-13T16:08:54.396Z,15.20
2022-12-13T16:11:58.639Z,17.43
2022-12-13T16:14:32.227Z,23.33
2022-12-13T16:17:24.932Z,15.10
2022-12-13T16:19:54.444Z,14.50
2022-12-13T16:22:23.835Z,15.17
2022-12-13T16:24:52.564Z,17.03
2022-12-13T16:27:20.146Z,12.47
2022-12-13T16:29:47.472Z,14.33
2022-12-13T16:32:14.737Z,15.47
2022-12-13T16:34:42.068Z,17.47
2022-12-13T16:37:25.509Z,15.00
2022-12-13T16:39:55.808Z,16.90
2022-12-13T16:42:26.443Z,15.53
2022-12-13T16:45:17.636Z,15.30
2022-12-13T16:47:48.740Z,18.03
2022-12-13T16:50:19.984Z,10.13
2022-12-13T16:52:48.719Z,18.33
2022-12-13T16:55:16.211Z,16.93
2022-12-13T16:57:43.567Z,15.23
2022-12-13T17:00:13.326Z,13.87
2022-12-13T17:02:41.005Z,15.43
2022-12-13T17:05:08.558Z,15.57
2022-12-13T17:07:35.825Z,21.27
2022-12-13T17:10:04.820Z,14.33
2022-12-13T17:12:32.120Z,14.33
2022-12-13T17:14:59.363Z,10.93
2022-12-13T17:17:26.596Z,16.03
2022-12-13T17:19:54.005Z,16.53
2022-12-13T17:22:21.232Z,16.10
2022-12-13T17:24:48.468Z,15.40
2022-12-13T17:27:15.815Z,14.37
2022-12-13T17:29:43.029Z,13.27
2022-12-13T17:32:10.313Z,13.30
2022-12-13T17:34:37.610Z,13.57
2022-12-13T17:37:10.214Z,10.60
2022-12-13T17:39:38.051Z,14.67
2022-12-13T17:42:05.588Z,12.90
2022-12-13T17:44:33.677Z,11.63
2022-12-13T17:47:01.257Z,12.77
2022-12-13T17:49:28.563Z,13.30
2022-12-13T17:51:55.888Z,15.53
2022-12-13T17:54:24.745Z,12.90
2022-12-13T17:56:52.831Z,14.80
2022-12-13T17:59:21.267Z,14.43
2022-12-13T18:01:48.866Z,11.93
2022-12-13T18:04:16.350Z,12.50
2022-12-13T18:06:45.074Z,10.90
2022-12-13T18:09:12.933Z,16.03
2022-12-13T18:11:40.680Z,11.30
2022-12-13T18:14:09.081Z,15.57
2022-12-13T18:16:38.952Z,13.03
2022-12-13T18:19:11.026Z,15.43
2022-12-13T18:21:38.648Z,14.97
2022-12-13T18:24:06.766Z,16.23
2022-12-13T18:26:34.225Z,13.30
2022-12-13T18:29:05.816Z,14.53
2022-12-13T18:31:33.556Z,16.77
2022-12-13T18:34:01.973Z,17.53
2022-12-13T18:36:30.378Z,14.10
2022-12-13T18:38:57.908Z,13.50
2022-12-13T18:41:28.569Z,14.57
2022-12-13T18:43:59.395Z,12.67
2022-12-13T18:46:29.751Z,15.63
2022-12-13T18:48:58.221Z,13.57
2022-12-13T18:51:26.779Z,15.10
2022-12-13T18:53:56.344Z,15.10
2022-12-13T18:56:24.553Z,14.30
2022-12-13T18:58:52.594Z,16.57
2022-12-13T19:01:23.220Z,12.67
2022-12-13T19:03:51.232Z,19.97
2022-12-13T19:06:22.154Z,18.33
2022-12-13T19:08:52.525Z,14.20
2022-12-13T19:11:20.855Z,12.20
2022-12-13T19:13:49.885Z,15.90
2022-12-13T19:16:29.634Z,14.73
2022-12-13T19:18:57.905Z,17.30
2022-12-13T19:21:25.610Z,14.90
2022-12-13T19:24:40.457Z,15.13
2022-12-13T19:27:09.028Z,14.27
2022-12-13T19:29:36.295Z,14.70
2022-12-13T19:32:03.901Z,13.53
2022-12-13T19:34:31.932Z,14.17
2022-12-13T19:37:06.267Z,17.10
2022-12-13T19:39:34.357Z,16.07
2022-12-13T19:42:04.148Z,14.93
2022-12-13T19:44:31.945Z,16.33
2022-12-13T19:47:00.199Z,13.37
2022-12-13T19:49:27.522Z,14.80
2022-12-13T19:51:55.283Z,14.37
2022-12-13T19:54:24.774Z,13.77
2022-12-13T19:56:53.328Z,13.93
2022-12-13T19:59:20.756Z,14.27
2022-12-13T20:01:48.061Z,11.77
2022-12-13T20:04:15.790Z,13.83
2022-12-13T20:06:43.201Z,11.83
2022-12-13T20:09:10.551Z,16.13
2022-12-13T20:11:37.903Z,12.53
2022-12-13T20:14:05.182Z,16.73
2022-12-13T20:16:32.736Z,16.60
2022-12-13T20:19:00.861Z,14.10
2022-12-13T20:21:29.540Z,15.20
2022-12-13T20:23:57.647Z,19.07
2022-12-13T20:26:27.833Z,14.37
2022-12-13T20:28:56.045Z,11.97
2022-12-13T20:31:29.003Z,13.03
2022-12-13T20:33:58.177Z,14.13
2022-12-13T20:36:27.825Z,12.33
2022-12-13T20:38:57.403Z,14.77
2022-12-13T20:41:27.603Z,13.17
2022-12-13T20:43:56.957Z,14.33
2022-12-13T20:46:25.716Z,14.20
2022-12-13T20:48:53.902Z,15.67
2022-12-13T20:51:23.246Z,13.27
2022-12-13T20:53:52.121Z,15.47
2022-12-13T20:56:22.732Z,12.93
2022-12-13T20:58:50.556Z,13.53
2022-12-13T21:01:30.531Z,16.23
2022-12-13T21:04:00.273Z,11.77
2022-12-13T21:06:28.944Z,15.80
2022-12-13T21:08:59.921Z,11.93
2022-12-13T21:11:52.599Z,13.40
2022-12-13T21:14:25.711Z,13.47
2022-12-13T21:17:00.904Z,14.40
2022-12-13T21:19:39.030Z,15.37
2022-12-13T21:22:07.694Z,18.77
2022-12-13T21:24:35.007Z,15.83
2022-12-13T21:27:02.254Z,17.33
2022-12-13T21:29:29.534Z,13.43
2022-12-13T21:31:56.992Z,14.50
2022-12-13T21:34:24.583Z,12.83
2022-12-13T21:36:52.708Z,14.90
2022-12-13T21:39:28.133Z,16.07
2022-12-13T21:41:56.646Z,17.07
2022-12-13T21:44:24.255Z,11.60
2022-12-13T21:49:39.109Z,12.33
2022-12-13T21:52:06.386Z,13.47
2022-12-13T21:54:33.813Z,16.17
2022-12-13T21:57:20.154Z,13.97
2022-12-13T21:59:47.484Z,12.43
2022-12-13T22:02:18.368Z,12.40
2022-12-13T22:04:54.454Z,13.53
2022-12-13T22:07:32.988Z,15.13
2022-12-13T22:10:01.487Z,15.33
2022-12-13T22:12:36.231Z,11.47
2022-12-13T22:15:11.943Z,12.53
2022-12-13T22:17:40.259Z,14.57
2022-12-13T22:20:10.992Z,13.67
2022-12-13T22:22:39.353Z,9.93
2022-12-13T22:25:07.549Z,12.83
2022-12-13T22:27:34.966Z,15.53
2022-12-13T22:30:02.225Z,13.30
2022-12-13T22:32:31.159Z,11.83
2022-12-13T22:34:59.054Z,13.43
2022-12-13T22:37:26.586Z,10.83
2022-12-13T22:39:54.082Z,13.27
2022-12-13T22:42:21.679Z,12.83
2022-12-13T22:44:49.073Z,12.87
2022-12-13T22:47:16.351Z,9.03
2022-12-13T22:49:43.660Z,13.77
2022-12-13T22:52:10.953Z,12.63
2022-12-13T22:54:38.251Z,12.53
2022-12-13T22:57:07.376Z,9.63
2022-12-13T22:59:34.700Z,12.53
2022-12-13T23:02:03.790Z,11.63
2022-12-13T23:04:32.906Z,10.10
2022-12-13T23:07:00.279Z,11.30
2022-12-13T23:09:27.609Z,9.53
2022-12-13T23:12:13.334Z,9.87
2022-12-13T23:14:40.558Z,11.77
2022-12-13T23:17:07.874Z,14.47
2022-12-13T23:19:50.703Z,11.17
2022-12-13T23:22:25.780Z,12.40
2022-12-13T23:24:53.413Z,10.30
2022-12-13T23:27:22.422Z,8.80
2022-12-13T23:29:49.989Z,12.23
2022-12-13T23:32:17.364Z,14.30
2022-12-13T23:34:44.599Z,9.57
2022-12-13T23:37:11.982Z,10.90
2022-12-13T23:39:39.364Z,12.77
2022-12-13T23:42:07.174Z,12.60
2022-12-13T23:44:34.624Z,11.33
2022-12-13T23:47:01.810Z,9.03
2022-12-13T23:49:29.138Z,11.03
2022-12-13T23:51:56.392Z,10.77
2022-12-13T23:54:23.611Z,8.07
2022-12-13T23:56:50.859Z,13.80
2022-12-13T23:59:18.883Z,11.60
